sensor_id;sensor_type;location;lat;lon;timestamp;temperature;humidity
65038;DHT22;51605;47.040;15.294;2023-03-21T00:00:54;20.50;53.90
65038;DHT22;51605;47.040;15.294;2023-03-21T00:03:20;20.50;53.90
65038;DHT22;51605;47.040;15.294;2023-03-21T00:05:46;20.50;53.90
65038;DHT22;51605;47.040;15.294;2023-03-21T00:08:16;20.50;53.90
65038;DHT22;51605;47.040;15.294;2023-03-21T00:10:42;20.50;53.80
65038;DHT22;51605;47.040;15.294;2023-03-21T00:13:08;20.50;53.80
65038;DHT22;51605;47.040;15.294;2023-03-21T00:15:33;20.50;53.80
65038;DHT22;51605;47.040;15.294;2023-03-21T00:18:03;20.50;53.70
65038;DHT22;51605;47.040;15.294;2023-03-21T00:20:32;20.50;53.80
65038;DHT22;51605;47.040;15.294;2023-03-21T00:23:02;20.50;53.80
65038;DHT22;51605;47.040;15.294;2023-03-21T00:25:28;20.50;53.80
65038;DHT22;51605;47.040;15.294;2023-03-21T00:27:54;20.50;53.80
65038;DHT22;51605;47.040;15.294;2023-03-21T00:30:20;20.50;53.70
65038;DHT22;51605;47.040;15.294;2023-03-21T00:32:46;20.50;54.70
65038;DHT22;51605;47.040;15.294;2023-03-21T00:35:11;20.50;53.80
65038;DHT22;51605;47.040;15.294;2023-03-21T00:37:38;20.50;53.80
65038;DHT22;51605;47.040;15.294;2023-03-21T00:40:05;20.50;53.70
65038;DHT22;51605;47.040;15.294;2023-03-21T00:42:35;20.50;53.80
65038;DHT22;51605;47.040;15.294;2023-03-21T00:45:01;20.50;53.80
65038;DHT22;51605;47.040;15.294;2023-03-21T00:47:27;20.50;53.70
65038;DHT22;51605;47.040;15.294;2023-03-21T00:49:53;20.50;53.80
65038;DHT22;51605;47.040;15.294;2023-03-21T00:52:19;20.50;53.70
65038;DHT22;51605;47.040;15.294;2023-03-21T00:54:44;20.50;53.70
65038;DHT22;51605;47.040;15.294;2023-03-21T00:57:10;20.50;53.80
65038;DHT22;51605;47.040;15.294;2023-03-21T00:59:36;20.50;53.70
65038;DHT22;51605;47.040;15.294;2023-03-21T01:02:01;20.50;53.70
65038;DHT22;51605;47.040;15.294;2023-03-21T01:04:32;20.50;53.70
65038;DHT22;51605;47.040;15.294;2023-03-21T01:06:58;20.50;53.70
65038;DHT22;51605;47.040;15.294;2023-03-21T01:09:24;20.50;53.70
65038;DHT22;51605;47.040;15.294;2023-03-21T01:11:50;20.50;53.70
65038;DHT22;51605;47.040;15.294;2023-03-21T01:14:18;20.50;53.70
65038;DHT22;51605;47.040;15.294;2023-03-21T01:16:44;20.50;53.70
65038;DHT22;51605;47.040;15.294;2023-03-21T01:19:15;20.50;53.70
65038;DHT22;51605;47.040;15.294;2023-03-21T01:21:42;20.50;53.70
65038;DHT22;51605;47.040;15.294;2023-03-21T01:24:08;20.50;53.70
65038;DHT22;51605;47.040;15.294;2023-03-21T01:26:34;20.50;53.80
65038;DHT22;51605;47.040;15.294;2023-03-21T01:29:02;20.50;53.70
65038;DHT22;51605;47.040;15.294;2023-03-21T01:31:28;20.50;53.80
65038;DHT22;51605;47.040;15.294;2023-03-21T01:33:53;20.50;53.80
65038;DHT22;51605;47.040;15.294;2023-03-21T01:36:22;20.50;53.80
65038;DHT22;51605;47.040;15.294;2023-03-21T01:38:48;20.50;53.80
65038;DHT22;51605;47.040;15.294;2023-03-21T01:41:26;20.50;53.80
65038;DHT22;51605;47.040;15.294;2023-03-21T01:43:52;20.50;53.80
65038;DHT22;51605;47.040;15.294;2023-03-21T01:49:34;20.50;53.70
65038;DHT22;51605;47.040;15.294;2023-03-21T01:52:06;20.50;53.80
65038;DHT22;51605;47.040;15.294;2023-03-21T01:54:37;20.50;53.70
65038;DHT22;51605;47.040;15.294;2023-03-21T01:57:08;20.50;53.70
65038;DHT22;51605;47.040;15.294;2023-03-21T01:59:42;20.50;53.70
65038;DHT22;51605;47.040;15.294;2023-03-21T02:02:12;20.50;53.80
65038;DHT22;51605;47.040;15.294;2023-03-21T02:04:39;20.50;53.80
65038;DHT22;51605;47.040;15.294;2023-03-21T02:07:14;20.50;53.70
65038;DHT22;51605;47.040;15.294;2023-03-21T02:09:46;20.50;53.70
65038;DHT22;51605;47.040;15.294;2023-03-21T02:12:13;20.50;53.70
65038;DHT22;51605;47.040;15.294;2023-03-21T02:14:41;20.50;53.70
65038;DHT22;51605;47.040;15.294;2023-03-21T02:20:27;20.50;53.70
65038;DHT22;51605;47.040;15.294;2023-03-21T02:29:33;20.50;53.70
65038;DHT22;51605;47.040;15.294;2023-03-21T02:39:52;20.50;53.70
65038;DHT22;51605;47.040;15.294;2023-03-21T02:45:19;20.50;53.70
65038;DHT22;51605;47.040;15.294;2023-03-21T02:47:56;20.50;53.70
65038;DHT22;51605;47.040;15.294;2023-03-21T02:52:49;20.50;53.70
65038;DHT22;51605;47.040;15.294;2023-03-21T02:55:21;20.50;53.80
65038;DHT22;51605;47.040;15.294;2023-03-21T02:57:50;20.50;53.90
65038;DHT22;51605;47.040;15.294;2023-03-21T03:00:20;20.50;53.80
65038;DHT22;51605;47.040;15.294;2023-03-21T03:02:47;20.50;53.70
65038;DHT22;51605;47.040;15.294;2023-03-21T03:05:29;20.50;53.80
65038;DHT22;51605;47.040;15.294;2023-03-21T03:16:06;20.50;53.70
65038;DHT22;51605;47.040;15.294;2023-03-21T03:18:45;20.50;53.70
65038;DHT22;51605;47.040;15.294;2023-03-21T03:26:33;20.50;53.70
65038;DHT22;51605;47.040;15.294;2023-03-21T03:29:03;20.50;53.70
65038;DHT22;51605;47.040;15.294;2023-03-21T03:31:36;20.50;53.70
65038;DHT22;51605;47.040;15.294;2023-03-21T03:34:07;20.50;53.80
65038;DHT22;51605;47.040;15.294;2023-03-21T03:36:41;20.50;53.80
65038;DHT22;51605;47.040;15.294;2023-03-21T03:39:09;20.50;53.80
65038;DHT22;51605;47.040;15.294;2023-03-21T03:41:53;20.50;53.80
65038;DHT22;51605;47.040;15.294;2023-03-21T03:44:19;20.50;53.80
65038;DHT22;51605;47.040;15.294;2023-03-21T03:49:23;20.50;53.70
65038;DHT22;51605;47.040;15.294;2023-03-21T03:51:51;20.50;53.70
65038;DHT22;51605;47.040;15.294;2023-03-21T03:54:32;20.50;53.70
65038;DHT22;51605;47.040;15.294;2023-03-21T03:56:59;20.50;53.80
65038;DHT22;51605;47.040;15.294;2023-03-21T03:59:26;20.50;53.80
65038;DHT22;51605;47.040;15.294;2023-03-21T04:01:51;20.50;53.70
65038;DHT22;51605;47.040;15.294;2023-03-21T04:04:17;20.50;53.70
65038;DHT22;51605;47.040;15.294;2023-03-21T04:06:43;20.50;53.70
65038;DHT22;51605;47.040;15.294;2023-03-21T04:09:16;20.50;53.80
65038;DHT22;51605;47.040;15.294;2023-03-21T04:11:42;20.50;53.70
65038;DHT22;51605;47.040;15.294;2023-03-21T04:14:08;20.50;53.70
65038;DHT22;51605;47.040;15.294;2023-03-21T04:16:33;20.50;53.70
65038;DHT22;51605;47.040;15.294;2023-03-21T04:18:59;20.50;53.70
65038;DHT22;51605;47.040;15.294;2023-03-21T04:21:25;20.50;53.70
65038;DHT22;51605;47.040;15.294;2023-03-21T04:23:52;20.50;53.70
65038;DHT22;51605;47.040;15.294;2023-03-21T04:26:22;20.50;53.70
65038;DHT22;51605;47.040;15.294;2023-03-21T04:28:49;20.50;53.70
65038;DHT22;51605;47.040;15.294;2023-03-21T04:31:15;20.50;53.70
65038;DHT22;51605;47.040;15.294;2023-03-21T04:33:44;20.50;53.70
65038;DHT22;51605;47.040;15.294;2023-03-21T04:36:12;20.50;53.70
65038;DHT22;51605;47.040;15.294;2023-03-21T04:38:49;20.50;53.70
65038;DHT22;51605;47.040;15.294;2023-03-21T04:41:15;20.50;53.70
65038;DHT22;51605;47.040;15.294;2023-03-21T04:43:41;20.50;53.70
65038;DHT22;51605;47.040;15.294;2023-03-21T04:46:06;20.50;53.80
65038;DHT22;51605;47.040;15.294;2023-03-21T04:48:32;20.50;53.80
65038;DHT22;51605;47.040;15.294;2023-03-21T04:50:58;20.50;53.70
65038;DHT22;51605;47.040;15.294;2023-03-21T04:53:23;20.50;53.70
65038;DHT22;51605;47.040;15.294;2023-03-21T04:55:49;20.50;53.70
65038;DHT22;51605;47.040;15.294;2023-03-21T04:58:15;20.50;53.80
65038;DHT22;51605;47.040;15.294;2023-03-21T05:00:41;20.50;53.80
65038;DHT22;51605;47.040;15.294;2023-03-21T05:03:07;20.50;53.80
65038;DHT22;51605;47.040;15.294;2023-03-21T05:05:37;20.50;53.90
65038;DHT22;51605;47.040;15.294;2023-03-21T05:08:04;20.50;53.80
65038;DHT22;51605;47.040;15.294;2023-03-21T05:10:30;20.50;53.80
65038;DHT22;51605;47.040;15.294;2023-03-21T05:12:55;20.50;53.70
65038;DHT22;51605;47.040;15.294;2023-03-21T05:15:21;20.50;53.70
65038;DHT22;51605;47.040;15.294;2023-03-21T05:17:47;20.50;53.70
65038;DHT22;51605;47.040;15.294;2023-03-21T05:20:13;20.50;53.70
65038;DHT22;51605;47.040;15.294;2023-03-21T05:22:42;20.50;53.80
65038;DHT22;51605;47.040;15.294;2023-03-21T05:25:10;20.50;53.80
65038;DHT22;51605;47.040;15.294;2023-03-21T05:27:36;20.50;53.80
65038;DHT22;51605;47.040;15.294;2023-03-21T05:30:08;20.50;53.80
65038;DHT22;51605;47.040;15.294;2023-03-21T05:32:34;20.50;53.80
65038;DHT22;51605;47.040;15.294;2023-03-21T05:35:00;20.50;53.80
65038;DHT22;51605;47.040;15.294;2023-03-21T05:37:27;20.50;53.70
65038;DHT22;51605;47.040;15.294;2023-03-21T05:39:53;20.50;53.80
65038;DHT22;51605;47.040;15.294;2023-03-21T05:42:18;20.50;53.80
65038;DHT22;51605;47.040;15.294;2023-03-21T05:44:44;20.50;53.80
65038;DHT22;51605;47.040;15.294;2023-03-21T05:47:12;20.50;53.80
65038;DHT22;51605;47.040;15.294;2023-03-21T05:49:38;20.50;53.90
65038;DHT22;51605;47.040;15.294;2023-03-21T05:52:04;20.50;53.90
65038;DHT22;51605;47.040;15.294;2023-03-21T05:54:30;20.50;53.80
65038;DHT22;51605;47.040;15.294;2023-03-21T05:56:55;20.50;53.90
65038;DHT22;51605;47.040;15.294;2023-03-21T05:59:21;20.50;53.80
65038;DHT22;51605;47.040;15.294;2023-03-21T06:01:47;20.50;53.80
65038;DHT22;51605;47.040;15.294;2023-03-21T06:04:12;20.50;53.90
65038;DHT22;51605;47.040;15.294;2023-03-21T06:06:38;20.50;53.80
65038;DHT22;51605;47.040;15.294;2023-03-21T06:09:04;20.50;53.80
65038;DHT22;51605;47.040;15.294;2023-03-21T06:11:33;20.50;53.80
65038;DHT22;51605;47.040;15.294;2023-03-21T06:13:59;20.50;53.80
65038;DHT22;51605;47.040;15.294;2023-03-21T06:16:25;20.50;53.80
65038;DHT22;51605;47.040;15.294;2023-03-21T06:18:50;20.50;53.80
65038;DHT22;51605;47.040;15.294;2023-03-21T06:21:16;20.50;53.70
65038;DHT22;51605;47.040;15.294;2023-03-21T06:23:41;20.50;53.80
65038;DHT22;51605;47.040;15.294;2023-03-21T06:26:07;20.50;53.90
65038;DHT22;51605;47.040;15.294;2023-03-21T06:28:33;20.50;53.80
65038;DHT22;51605;47.040;15.294;2023-03-21T06:30:58;20.50;53.80
65038;DHT22;51605;47.040;15.294;2023-03-21T06:33:24;20.50;53.90
65038;DHT22;51605;47.040;15.294;2023-03-21T06:35:55;20.50;53.90
65038;DHT22;51605;47.040;15.294;2023-03-21T06:38:21;20.50;53.90
65038;DHT22;51605;47.040;15.294;2023-03-21T06:40:47;20.50;53.80
65038;DHT22;51605;47.040;15.294;2023-03-21T06:43:13;20.50;53.80
65038;DHT22;51605;47.040;15.294;2023-03-21T06:45:40;20.50;53.90
65038;DHT22;51605;47.040;15.294;2023-03-21T06:48:06;20.50;53.80
65038;DHT22;51605;47.040;15.294;2023-03-21T06:50:31;20.50;53.70
65038;DHT22;51605;47.040;15.294;2023-03-21T06:52:57;20.50;53.80
65038;DHT22;51605;47.040;15.294;2023-03-21T06:55:24;20.50;53.70
65038;DHT22;51605;47.040;15.294;2023-03-21T06:57:52;20.50;53.80
65038;DHT22;51605;47.040;15.294;2023-03-21T07:00:18;20.50;53.60
65038;DHT22;51605;47.040;15.294;2023-03-21T07:02:44;20.50;53.40
65038;DHT22;51605;47.040;15.294;2023-03-21T07:05:10;20.50;53.20
65038;DHT22;51605;47.040;15.294;2023-03-21T07:07:37;20.50;53.10
65038;DHT22;51605;47.040;15.294;2023-03-21T07:10:03;20.50;52.90
65038;DHT22;51605;47.040;15.294;2023-03-21T07:12:29;20.50;52.80
65038;DHT22;51605;47.040;15.294;2023-03-21T07:14:59;20.50;52.60
65038;DHT22;51605;47.040;15.294;2023-03-21T07:17:25;20.50;52.50
65038;DHT22;51605;47.040;15.294;2023-03-21T07:19:51;20.50;52.30
65038;DHT22;51605;47.040;15.294;2023-03-21T07:22:17;20.50;52.20
65038;DHT22;51605;47.040;15.294;2023-03-21T07:24:42;20.50;52.30
65038;DHT22;51605;47.040;15.294;2023-03-21T07:27:08;20.50;52.20
65038;DHT22;51605;47.040;15.294;2023-03-21T07:29:34;20.50;52.30
65038;DHT22;51605;47.040;15.294;2023-03-21T07:32:00;20.50;52.20
65038;DHT22;51605;47.040;15.294;2023-03-21T07:34:26;20.50;52.30
65038;DHT22;51605;47.040;15.294;2023-03-21T07:36:57;20.50;52.10
65038;DHT22;51605;47.040;15.294;2023-03-21T07:39:23;20.50;52.20
65038;DHT22;51605;47.040;15.294;2023-03-21T07:41:48;20.50;52.20
65038;DHT22;51605;47.040;15.294;2023-03-21T07:44:14;20.50;52.40
65038;DHT22;51605;47.040;15.294;2023-03-21T07:46:40;20.50;52.40
65038;DHT22;51605;47.040;15.294;2023-03-21T07:49:05;20.50;52.50
65038;DHT22;51605;47.040;15.294;2023-03-21T07:51:33;20.50;52.50
65038;DHT22;51605;47.040;15.294;2023-03-21T07:54:00;20.50;52.50
65038;DHT22;51605;47.040;15.294;2023-03-21T07:56:27;20.50;52.60
65038;DHT22;51605;47.040;15.294;2023-03-21T07:58:52;20.50;52.60
65038;DHT22;51605;47.040;15.294;2023-03-21T08:01:18;20.50;52.70
65038;DHT22;51605;47.040;15.294;2023-03-21T08:03:46;20.50;52.70
65038;DHT22;51605;47.040;15.294;2023-03-21T08:06:12;20.50;52.70
65038;DHT22;51605;47.040;15.294;2023-03-21T08:08:38;20.50;52.70
65038;DHT22;51605;47.040;15.294;2023-03-21T08:11:05;20.50;52.70
65038;DHT22;51605;47.040;15.294;2023-03-21T08:13:31;20.50;52.80
65038;DHT22;51605;47.040;15.294;2023-03-21T08:15:57;20.50;52.80
65038;DHT22;51605;47.040;15.294;2023-03-21T08:18:22;20.50;53.10
65038;DHT22;51605;47.040;15.294;2023-03-21T08:20:52;20.60;53.80
65038;DHT22;51605;47.040;15.294;2023-03-21T08:23:19;20.70;53.90
65038;DHT22;51605;47.040;15.294;2023-03-21T08:25:45;20.90;53.70
65038;DHT22;51605;47.040;15.294;2023-03-21T08:28:11;20.90;53.60
65038;DHT22;51605;47.040;15.294;2023-03-21T08:30:37;21.00;53.50
65038;DHT22;51605;47.040;15.294;2023-03-21T08:33:03;21.10;53.50
65038;DHT22;51605;47.040;15.294;2023-03-21T08:35:30;21.10;53.40
65038;DHT22;51605;47.040;15.294;2023-03-21T08:37:56;21.20;53.20
65038;DHT22;51605;47.040;15.294;2023-03-21T08:40:22;21.10;52.80
65038;DHT22;51605;47.040;15.294;2023-03-21T08:42:47;21.10;53.70
65038;DHT22;51605;47.040;15.294;2023-03-21T08:45:15;21.00;52.70
65038;DHT22;51605;47.040;15.294;2023-03-21T08:47:41;20.90;52.80
65038;DHT22;51605;47.040;15.294;2023-03-21T08:50:11;20.80;53.00
65038;DHT22;51605;47.040;15.294;2023-03-21T08:52:38;20.80;53.10
65038;DHT22;51605;47.040;15.294;2023-03-21T08:55:04;20.80;53.10
65038;DHT22;51605;47.040;15.294;2023-03-21T08:57:30;20.80;53.20
65038;DHT22;51605;47.040;15.294;2023-03-21T08:59:56;20.70;53.20
65038;DHT22;51605;47.040;15.294;2023-03-21T09:02:22;20.70;53.20
65038;DHT22;51605;47.040;15.294;2023-03-21T09:04:48;20.70;53.30
65038;DHT22;51605;47.040;15.294;2023-03-21T09:07:13;20.70;53.30
65038;DHT22;51605;47.040;15.294;2023-03-21T09:09:41;20.70;53.40
65038;DHT22;51605;47.040;15.294;2023-03-21T09:12:07;20.70;53.30
65038;DHT22;51605;47.040;15.294;2023-03-21T09:14:33;20.60;53.30
65038;DHT22;51605;47.040;15.294;2023-03-21T09:17:00;20.60;53.40
65038;DHT22;51605;47.040;15.294;2023-03-21T09:19:25;20.60;53.40
65038;DHT22;51605;47.040;15.294;2023-03-21T09:21:52;20.60;53.50
65038;DHT22;51605;47.040;15.294;2023-03-21T09:24:20;20.60;53.40
65038;DHT22;51605;47.040;15.294;2023-03-21T09:26:46;20.60;53.50
65038;DHT22;51605;47.040;15.294;2023-03-21T09:29:15;20.60;53.50
65038;DHT22;51605;47.040;15.294;2023-03-21T09:31:41;20.60;53.50
65038;DHT22;51605;47.040;15.294;2023-03-21T09:34:08;20.60;53.50
65038;DHT22;51605;47.040;15.294;2023-03-21T09:36:34;20.60;53.50
65038;DHT22;51605;47.040;15.294;2023-03-21T09:39:00;20.50;53.40
65038;DHT22;51605;47.040;15.294;2023-03-21T09:46:46;20.50;53.50
65038;DHT22;51605;47.040;15.294;2023-03-21T09:49:39;20.50;53.60
65038;DHT22;51605;47.040;15.294;2023-03-21T09:52:16;20.60;53.70
65038;DHT22;51605;47.040;15.294;2023-03-21T09:54:42;20.50;53.60
65038;DHT22;51605;47.040;15.294;2023-03-21T09:57:37;20.60;53.60
65038;DHT22;51605;47.040;15.294;2023-03-21T10:00:10;20.60;53.70
65038;DHT22;51605;47.040;15.294;2023-03-21T10:02:46;20.50;53.50
65038;DHT22;51605;47.040;15.294;2023-03-21T10:05:22;20.60;53.60
65038;DHT22;51605;47.040;15.294;2023-03-21T10:07:57;20.60;53.60
65038;DHT22;51605;47.040;15.294;2023-03-21T10:10:30;20.50;53.50
65038;DHT22;51605;47.040;15.294;2023-03-21T10:12:57;20.50;54.40
65038;DHT22;51605;47.040;15.294;2023-03-21T10:15:25;20.50;53.60
65038;DHT22;51605;47.040;15.294;2023-03-21T10:18:04;20.50;53.70
65038;DHT22;51605;47.040;15.294;2023-03-21T10:20:35;20.50;53.70
65038;DHT22;51605;47.040;15.294;2023-03-21T10:23:07;20.50;53.70
65038;DHT22;51605;47.040;15.294;2023-03-21T10:28:33;20.50;53.60
65038;DHT22;51605;47.040;15.294;2023-03-21T10:31:02;20.50;53.60
65038;DHT22;51605;47.040;15.294;2023-03-21T10:33:38;20.60;53.70
65038;DHT22;51605;47.040;15.294;2023-03-21T10:36:15;20.50;53.70
65038;DHT22;51605;47.040;15.294;2023-03-21T10:38:46;20.50;53.60
65038;DHT22;51605;47.040;15.294;2023-03-21T10:41:12;20.50;53.60
65038;DHT22;51605;47.040;15.294;2023-03-21T10:43:39;20.60;53.50
65038;DHT22;51605;47.040;15.294;2023-03-21T10:46:06;20.50;53.50
65038;DHT22;51605;47.040;15.294;2023-03-21T10:48:37;20.60;53.60
65038;DHT22;51605;47.040;15.294;2023-03-21T10:51:05;20.60;53.50
65038;DHT22;51605;47.040;15.294;2023-03-21T10:53:36;20.60;53.50
65038;DHT22;51605;47.040;15.294;2023-03-21T10:56:07;20.60;53.70
65038;DHT22;51605;47.040;15.294;2023-03-21T10:58:43;20.60;53.70
65038;DHT22;51605;47.040;15.294;2023-03-21T11:01:13;20.50;53.60
65038;DHT22;51605;47.040;15.294;2023-03-21T11:03:42;20.50;53.60
65038;DHT22;51605;47.040;15.294;2023-03-21T11:06:26;20.50;53.60
65038;DHT22;51605;47.040;15.294;2023-03-21T11:09:11;20.50;53.60
65038;DHT22;51605;47.040;15.294;2023-03-21T11:11:40;20.50;53.60
65038;DHT22;51605;47.040;15.294;2023-03-21T11:14:31;20.50;53.70
65038;DHT22;51605;47.040;15.294;2023-03-21T11:16:57;20.50;53.70
65038;DHT22;51605;47.040;15.294;2023-03-21T11:19:30;20.50;53.60
65038;DHT22;51605;47.040;15.294;2023-03-21T11:22:06;20.50;53.60
65038;DHT22;51605;47.040;15.294;2023-03-21T11:24:33;20.50;53.60
65038;DHT22;51605;47.040;15.294;2023-03-21T11:27:05;20.50;53.60
65038;DHT22;51605;47.040;15.294;2023-03-21T11:29:38;20.50;53.60
65038;DHT22;51605;47.040;15.294;2023-03-21T11:32:24;20.50;53.60
65038;DHT22;51605;47.040;15.294;2023-03-21T11:37:26;20.50;53.60
65038;DHT22;51605;47.040;15.294;2023-03-21T11:40:05;20.50;53.60
65038;DHT22;51605;47.040;15.294;2023-03-21T11:42:43;20.50;53.70
65038;DHT22;51605;47.040;15.294;2023-03-21T11:45:21;20.50;53.70
65038;DHT22;51605;47.040;15.294;2023-03-21T11:47:48;20.50;53.70
65038;DHT22;51605;47.040;15.294;2023-03-21T11:50:37;20.50;53.70
65038;DHT22;51605;47.040;15.294;2023-03-21T12:01:01;20.50;53.70
65038;DHT22;51605;47.040;15.294;2023-03-21T12:06:01;20.50;53.70
65038;DHT22;51605;47.040;15.294;2023-03-21T12:16:27;20.50;53.90
65038;DHT22;51605;47.040;15.294;2023-03-21T12:24:56;20.50;53.80
65038;DHT22;51605;47.040;15.294;2023-03-21T12:30:41;20.50;53.90
65038;DHT22;51605;47.040;15.294;2023-03-21T12:41:43;20.50;53.90
65038;DHT22;51605;47.040;15.294;2023-03-21T12:44:14;20.50;54.00
65038;DHT22;51605;47.040;15.294;2023-03-21T12:46:54;20.50;53.90
65038;DHT22;51605;47.040;15.294;2023-03-21T12:49:33;20.50;53.90
65038;DHT22;51605;47.040;15.294;2023-03-21T12:52:20;20.50;53.90
65038;DHT22;51605;47.040;15.294;2023-03-21T12:54:51;20.50;54.00
65038;DHT22;51605;47.040;15.294;2023-03-21T12:57:25;20.50;53.90
65038;DHT22;51605;47.040;15.294;2023-03-21T13:02:59;20.50;54.00
65038;DHT22;51605;47.040;15.294;2023-03-21T13:10:46;20.50;54.00
65038;DHT22;51605;47.040;15.294;2023-03-21T13:21:49;20.50;54.10
65038;DHT22;51605;47.040;15.294;2023-03-21T13:24:23;20.50;53.90
65038;DHT22;51605;47.040;15.294;2023-03-21T13:27:34;20.50;53.90
65038;DHT22;51605;47.040;15.294;2023-03-21T13:29:50;20.50;53.90
65038;DHT22;51605;47.040;15.294;2023-03-21T13:32:38;20.50;54.00
65038;DHT22;51605;47.040;15.294;2023-03-21T13:35:15;20.50;54.00
65038;DHT22;51605;47.040;15.294;2023-03-21T13:37:58;20.50;54.00
65038;DHT22;51605;47.040;15.294;2023-03-21T13:40:48;20.50;54.10
65038;DHT22;51605;47.040;15.294;2023-03-21T13:49:00;20.40;54.10
65038;DHT22;51605;47.040;15.294;2023-03-21T13:56:27;20.50;54.10
65038;DHT22;51605;47.040;15.294;2023-03-21T13:59:01;20.40;54.00
65038;DHT22;51605;47.040;15.294;2023-03-21T14:04:20;20.50;54.10
65038;DHT22;51605;47.040;15.294;2023-03-21T14:07:04;20.50;54.10
65038;DHT22;51605;47.040;15.294;2023-03-21T14:09:44;20.50;54.00
65038;DHT22;51605;47.040;15.294;2023-03-21T14:12:17;20.50;54.20
65038;DHT22;51605;47.040;15.294;2023-03-21T14:14:48;20.50;54.00
65038;DHT22;51605;47.040;15.294;2023-03-21T14:17:27;20.50;54.10
65038;DHT22;51605;47.040;15.294;2023-03-21T14:20:04;20.50;54.00
65038;DHT22;51605;47.040;15.294;2023-03-21T14:22:37;20.50;54.00
65038;DHT22;51605;47.040;15.294;2023-03-21T14:25:03;20.50;54.00
65038;DHT22;51605;47.040;15.294;2023-03-21T14:27:33;20.50;53.90
65038;DHT22;51605;47.040;15.294;2023-03-21T14:30:00;20.50;53.80
65038;DHT22;51605;47.040;15.294;2023-03-21T14:32:28;20.50;53.90
65038;DHT22;51605;47.040;15.294;2023-03-21T14:34:55;20.50;53.90
65038;DHT22;51605;47.040;15.294;2023-03-21T14:40:00;20.50;56.00
65038;DHT22;51605;47.040;15.294;2023-03-21T14:42:27;20.60;56.60
65038;DHT22;51605;47.040;15.294;2023-03-21T14:44:53;20.60;55.80
65038;DHT22;51605;47.040;15.294;2023-03-21T14:47:29;20.60;55.20
65038;DHT22;51605;47.040;15.294;2023-03-21T14:49:57;20.60;55.10
65038;DHT22;51605;47.040;15.294;2023-03-21T14:52:33;20.60;54.80
65038;DHT22;51605;47.040;15.294;2023-03-21T14:55:00;20.60;54.70
65038;DHT22;51605;47.040;15.294;2023-03-21T14:57:29;20.60;54.70
65038;DHT22;51605;47.040;15.294;2023-03-21T14:59:58;20.60;54.70
65038;DHT22;51605;47.040;15.294;2023-03-21T15:02:34;20.60;54.60
65038;DHT22;51605;47.040;15.294;2023-03-21T15:07:38;20.50;54.50
65038;DHT22;51605;47.040;15.294;2023-03-21T15:10:11;20.50;54.60
65038;DHT22;51605;47.040;15.294;2023-03-21T15:12:52;20.60;54.50
65038;DHT22;51605;47.040;15.294;2023-03-21T15:15:18;20.60;54.40
65038;DHT22;51605;47.040;15.294;2023-03-21T15:17:45;20.50;54.50
65038;DHT22;51605;47.040;15.294;2023-03-21T15:20:15;20.60;54.70
65038;DHT22;51605;47.040;15.294;2023-03-21T15:22:46;20.60;54.60
65038;DHT22;51605;47.040;15.294;2023-03-21T15:25:17;20.60;54.50
65038;DHT22;51605;47.040;15.294;2023-03-21T15:27:45;20.60;54.40
65038;DHT22;51605;47.040;15.294;2023-03-21T15:30:24;20.60;54.40
65038;DHT22;51605;47.040;15.294;2023-03-21T15:32:50;20.60;54.40
65038;DHT22;51605;47.040;15.294;2023-03-21T15:35:41;20.50;54.30
65038;DHT22;51605;47.040;15.294;2023-03-21T15:40:45;20.60;54.30
65038;DHT22;51605;47.040;15.294;2023-03-21T15:43:15;20.60;54.30
65038;DHT22;51605;47.040;15.294;2023-03-21T15:45:50;20.60;54.30
65038;DHT22;51605;47.040;15.294;2023-03-21T15:48:21;20.50;54.20
65038;DHT22;51605;47.040;15.294;2023-03-21T15:51:06;20.60;54.30
65038;DHT22;51605;47.040;15.294;2023-03-21T15:53:36;20.50;54.20
65038;DHT22;51605;47.040;15.294;2023-03-21T15:56:04;20.50;54.10
65038;DHT22;51605;47.040;15.294;2023-03-21T15:58:35;20.50;54.10
65038;DHT22;51605;47.040;15.294;2023-03-21T16:01:09;20.50;54.10
65038;DHT22;51605;47.040;15.294;2023-03-21T16:03:37;20.50;55.00
65038;DHT22;51605;47.040;15.294;2023-03-21T16:06:20;20.50;54.30
65038;DHT22;51605;47.040;15.294;2023-03-21T16:08:51;20.50;54.20
65038;DHT22;51605;47.040;15.294;2023-03-21T16:11:26;20.50;54.10
65038;DHT22;51605;47.040;15.294;2023-03-21T16:13:53;20.50;54.10
65038;DHT22;51605;47.040;15.294;2023-03-21T16:16:20;20.50;54.10
65038;DHT22;51605;47.040;15.294;2023-03-21T16:18:47;20.50;54.10
65038;DHT22;51605;47.040;15.294;2023-03-21T16:21:15;20.50;54.10
65038;DHT22;51605;47.040;15.294;2023-03-21T16:23:41;20.50;54.10
65038;DHT22;51605;47.040;15.294;2023-03-21T16:26:20;20.50;54.10
65038;DHT22;51605;47.040;15.294;2023-03-21T16:28:47;20.50;54.00
65038;DHT22;51605;47.040;15.294;2023-03-21T16:31:18;20.50;54.10
65038;DHT22;51605;47.040;15.294;2023-03-21T16:33:45;20.50;54.10
65038;DHT22;51605;47.040;15.294;2023-03-21T16:36:16;20.50;54.10
65038;DHT22;51605;47.040;15.294;2023-03-21T16:38:45;20.50;54.10
65038;DHT22;51605;47.040;15.294;2023-03-21T16:41:12;20.50;54.00
65038;DHT22;51605;47.040;15.294;2023-03-21T16:43:39;20.50;55.00
65038;DHT22;51605;47.040;15.294;2023-03-21T16:46:14;20.50;54.10
65038;DHT22;51605;47.040;15.294;2023-03-21T16:48:41;20.50;54.00
65038;DHT22;51605;47.040;15.294;2023-03-21T16:51:10;20.50;54.00
65038;DHT22;51605;47.040;15.294;2023-03-21T16:53:36;20.50;54.00
65038;DHT22;51605;47.040;15.294;2023-03-21T16:56:02;20.50;53.90
65038;DHT22;51605;47.040;15.294;2023-03-21T16:58:29;20.50;53.90
65038;DHT22;51605;47.040;15.294;2023-03-21T17:00:55;20.50;54.00
65038;DHT22;51605;47.040;15.294;2023-03-21T17:03:21;20.50;54.00
65038;DHT22;51605;47.040;15.294;2023-03-21T17:05:47;20.50;54.00
65038;DHT22;51605;47.040;15.294;2023-03-21T17:08:18;20.50;54.00
65038;DHT22;51605;47.040;15.294;2023-03-21T17:10:44;20.50;54.00
65038;DHT22;51605;47.040;15.294;2023-03-21T17:13:10;20.50;54.00
65038;DHT22;51605;47.040;15.294;2023-03-21T17:15:36;20.50;54.20
65038;DHT22;51605;47.040;15.294;2023-03-21T17:18:03;20.50;54.00
65038;DHT22;51605;47.040;15.294;2023-03-21T17:20:31;20.50;54.00
65038;DHT22;51605;47.040;15.294;2023-03-21T17:22:58;20.50;54.10
65038;DHT22;51605;47.040;15.294;2023-03-21T17:25:24;20.40;53.90
65038;DHT22;51605;47.040;15.294;2023-03-21T17:27:50;20.50;54.00
65038;DHT22;51605;47.040;15.294;2023-03-21T17:30:36;20.50;54.00
65038;DHT22;51605;47.040;15.294;2023-03-21T17:33:04;20.50;54.00
65038;DHT22;51605;47.040;15.294;2023-03-21T17:35:29;20.50;53.90